Terminal Aerodrome Forecast
Issued by NWS Paducah, KY

Home | Current Version | Previous Version | Text Only | Print | Product List | Glossary Off
Versions: 1 2 3 4 5 6 7 8 9 10 11 12 13 14 15 16 17 18 19 20 21 22 23 24 25 26 27 28 29

622
FTUS43 KPAH 161740
TAFPAH
TAF
KPAH 161740Z 1618/1718 14004KT P6SM VCSH SCT015 OVC060
     FM162300 17012KT 5SM -SHRA BR VCTS OVC010CB
      TEMPO 1701/1705 2SM -TSRA BR OVC008CB
     FM170900 23010KT 4SM BR OVC012=

USA.gov is the U.S. government's official web portal to all federal, state and local government web resources and services.